sensor_id;sensor_type;location;lat;lon;timestamp;P1;durP1;ratioP1;P2;durP2;ratioP2
37431;SDS011;23292;51.300;6.252;2024-03-08T00:01:02;30.63;;;17.48;;
37431;SDS011;23292;51.300;6.252;2024-03-08T00:03:29;30.73;;;18.23;;
37431;SDS011;23292;51.300;6.252;2024-03-08T00:05:56;28.92;;;17.85;;
37431;SDS011;23292;51.300;6.252;2024-03-08T00:08:23;32.95;;;19.55;;
37431;SDS011;23292;51.300;6.252;2024-03-08T00:10:51;32.97;;;18.50;;
37431;SDS011;23292;51.300;6.252;2024-03-08T00:13:17;34.78;;;19.60;;
37431;SDS011;23292;51.300;6.252;2024-03-08T00:15:44;37.03;;;19.30;;
37431;SDS011;23292;51.300;6.252;2024-03-08T00:18:11;34.38;;;19.63;;
37431;SDS011;23292;51.300;6.252;2024-03-08T00:20:38;30.77;;;18.60;;
37431;SDS011;23292;51.300;6.252;2024-03-08T00:23:05;31.05;;;19.15;;
37431;SDS011;23292;51.300;6.252;2024-03-08T00:25:32;33.40;;;18.38;;
37431;SDS011;23292;51.300;6.252;2024-03-08T00:28:00;33.28;;;18.65;;
37431;SDS011;23292;51.300;6.252;2024-03-08T00:30:26;32.75;;;18.05;;
37431;SDS011;23292;51.300;6.252;2024-03-08T00:32:53;36.45;;;18.83;;
37431;SDS011;23292;51.300;6.252;2024-03-08T00:35:20;33.95;;;18.27;;
37431;SDS011;23292;51.300;6.252;2024-03-08T00:37:47;30.98;;;18.80;;
37431;SDS011;23292;51.300;6.252;2024-03-08T00:40:14;33.20;;;17.90;;
37431;SDS011;23292;51.300;6.252;2024-03-08T00:42:41;36.28;;;20.05;;
37431;SDS011;23292;51.300;6.252;2024-03-08T00:45:10;31.00;;;18.50;;
37431;SDS011;23292;51.300;6.252;2024-03-08T00:47:37;33.63;;;19.08;;
37431;SDS011;23292;51.300;6.252;2024-03-08T00:50:09;33.17;;;18.27;;
37431;SDS011;23292;51.300;6.252;2024-03-08T00:52:36;35.20;;;20.02;;
37431;SDS011;23292;51.300;6.252;2024-03-08T00:55:04;35.35;;;20.13;;
37431;SDS011;23292;51.300;6.252;2024-03-08T00:57:31;34.83;;;19.55;;
37431;SDS011;23292;51.300;6.252;2024-03-08T00:59:59;31.40;;;18.00;;
37431;SDS011;23292;51.300;6.252;2024-03-08T01:02:26;34.85;;;19.80;;
37431;SDS011;23292;51.300;6.252;2024-03-08T01:04:52;38.47;;;21.38;;
37431;SDS011;23292;51.300;6.252;2024-03-08T01:07:19;35.13;;;20.67;;
37431;SDS011;23292;51.300;6.252;2024-03-08T01:09:46;33.78;;;19.27;;
37431;SDS011;23292;51.300;6.252;2024-03-08T01:12:13;35.70;;;19.60;;
37431;SDS011;23292;51.300;6.252;2024-03-08T01:14:40;33.92;;;19.10;;
37431;SDS011;23292;51.300;6.252;2024-03-08T01:17:06;37.40;;;19.75;;
37431;SDS011;23292;51.300;6.252;2024-03-08T01:19:33;37.00;;;19.63;;
37431;SDS011;23292;51.300;6.252;2024-03-08T01:22:00;33.85;;;19.27;;
37431;SDS011;23292;51.300;6.252;2024-03-08T01:24:28;36.65;;;19.55;;
37431;SDS011;23292;51.300;6.252;2024-03-08T01:26:55;31.38;;;18.92;;
37431;SDS011;23292;51.300;6.252;2024-03-08T01:29:21;36.90;;;20.45;;
37431;SDS011;23292;51.300;6.252;2024-03-08T01:31:48;32.17;;;18.77;;
37431;SDS011;23292;51.300;6.252;2024-03-08T01:34:15;34.42;;;19.48;;
37431;SDS011;23292;51.300;6.252;2024-03-08T01:36:42;34.80;;;19.70;;
37431;SDS011;23292;51.300;6.252;2024-03-08T01:39:09;32.30;;;19.52;;
37431;SDS011;23292;51.300;6.252;2024-03-08T01:41:36;39.33;;;21.33;;
37431;SDS011;23292;51.300;6.252;2024-03-08T01:44:03;36.40;;;20.98;;
37431;SDS011;23292;51.300;6.252;2024-03-08T01:46:30;34.45;;;19.98;;
37431;SDS011;23292;51.300;6.252;2024-03-08T01:48:57;34.35;;;19.83;;
37431;SDS011;23292;51.300;6.252;2024-03-08T01:51:25;36.58;;;19.92;;
37431;SDS011;23292;51.300;6.252;2024-03-08T01:53:51;34.67;;;20.02;;
37431;SDS011;23292;51.300;6.252;2024-03-08T01:56:19;35.38;;;19.70;;
37431;SDS011;23292;51.300;6.252;2024-03-08T01:58:46;34.83;;;20.13;;
37431;SDS011;23292;51.300;6.252;2024-03-08T02:01:13;38.80;;;20.60;;
37431;SDS011;23292;51.300;6.252;2024-03-08T02:03:42;36.63;;;20.35;;
37431;SDS011;23292;51.300;6.252;2024-03-08T02:06:13;37.08;;;20.80;;
37431;SDS011;23292;51.300;6.252;2024-03-08T02:08:43;38.25;;;20.65;;
37431;SDS011;23292;51.300;6.252;2024-03-08T02:11:11;37.15;;;21.25;;
37431;SDS011;23292;51.300;6.252;2024-03-08T02:13:38;37.90;;;20.88;;
37431;SDS011;23292;51.300;6.252;2024-03-08T02:16:05;36.67;;;21.08;;
37431;SDS011;23292;51.300;6.252;2024-03-08T02:18:34;35.33;;;20.08;;
37431;SDS011;23292;51.300;6.252;2024-03-08T02:21:02;36.20;;;21.00;;
37431;SDS011;23292;51.300;6.252;2024-03-08T02:23:30;41.08;;;22.60;;
37431;SDS011;23292;51.300;6.252;2024-03-08T02:25:59;37.70;;;20.95;;
37431;SDS011;23292;51.300;6.252;2024-03-08T02:28:25;35.70;;;19.83;;
37431;SDS011;23292;51.300;6.252;2024-03-08T02:30:52;37.70;;;20.80;;
37431;SDS011;23292;51.300;6.252;2024-03-08T02:33:24;37.80;;;21.38;;
37431;SDS011;23292;51.300;6.252;2024-03-08T02:35:52;40.92;;;21.40;;
37431;SDS011;23292;51.300;6.252;2024-03-08T02:38:20;38.20;;;21.33;;
37431;SDS011;23292;51.300;6.252;2024-03-08T02:40:49;38.10;;;20.77;;
37431;SDS011;23292;51.300;6.252;2024-03-08T02:43:17;36.22;;;20.65;;
37431;SDS011;23292;51.300;6.252;2024-03-08T02:45:45;38.25;;;21.40;;
37431;SDS011;23292;51.300;6.252;2024-03-08T02:48:13;35.88;;;19.80;;
37431;SDS011;23292;51.300;6.252;2024-03-08T02:50:41;40.20;;;21.60;;
37431;SDS011;23292;51.300;6.252;2024-03-08T02:53:09;42.28;;;22.13;;
37431;SDS011;23292;51.300;6.252;2024-03-08T02:55:37;36.85;;;19.85;;
37431;SDS011;23292;51.300;6.252;2024-03-08T02:58:05;43.50;;;21.90;;
37431;SDS011;23292;51.300;6.252;2024-03-08T03:00:36;43.17;;;21.90;;
37431;SDS011;23292;51.300;6.252;2024-03-08T03:03:05;41.30;;;21.38;;
37431;SDS011;23292;51.300;6.252;2024-03-08T03:05:33;36.85;;;20.52;;
37431;SDS011;23292;51.300;6.252;2024-03-08T03:08:02;39.65;;;22.00;;
37431;SDS011;23292;51.300;6.252;2024-03-08T03:10:33;38.97;;;21.87;;
37431;SDS011;23292;51.300;6.252;2024-03-08T03:13:00;41.45;;;21.02;;
37431;SDS011;23292;51.300;6.252;2024-03-08T03:15:27;40.05;;;20.88;;
37431;SDS011;23292;51.300;6.252;2024-03-08T03:17:53;39.28;;;22.23;;
37431;SDS011;23292;51.300;6.252;2024-03-08T03:20:21;45.00;;;23.40;;
37431;SDS011;23292;51.300;6.252;2024-03-08T03:22:59;39.42;;;20.95;;
37431;SDS011;23292;51.300;6.252;2024-03-08T03:25:28;39.15;;;21.73;;
37431;SDS011;23292;51.300;6.252;2024-03-08T03:28:02;42.67;;;22.65;;
37431;SDS011;23292;51.300;6.252;2024-03-08T03:30:30;48.33;;;26.00;;
37431;SDS011;23292;51.300;6.252;2024-03-08T03:33:00;38.58;;;21.90;;
37431;SDS011;23292;51.300;6.252;2024-03-08T03:35:28;39.28;;;22.33;;
37431;SDS011;23292;51.300;6.252;2024-03-08T03:37:55;41.72;;;22.52;;
37431;SDS011;23292;51.300;6.252;2024-03-08T03:40:33;39.08;;;21.70;;
37431;SDS011;23292;51.300;6.252;2024-03-08T03:43:00;39.53;;;21.48;;
37431;SDS011;23292;51.300;6.252;2024-03-08T03:45:29;41.42;;;22.23;;
37431;SDS011;23292;51.300;6.252;2024-03-08T03:48:01;42.07;;;23.33;;
37431;SDS011;23292;51.300;6.252;2024-03-08T03:50:33;41.28;;;22.38;;
37431;SDS011;23292;51.300;6.252;2024-03-08T03:53:02;45.47;;;23.05;;
37431;SDS011;23292;51.300;6.252;2024-03-08T03:55:29;47.30;;;24.10;;
37431;SDS011;23292;51.300;6.252;2024-03-08T03:57:56;45.83;;;24.33;;
37431;SDS011;23292;51.300;6.252;2024-03-08T04:00:25;43.60;;;23.27;;
37431;SDS011;23292;51.300;6.252;2024-03-08T04:02:53;39.65;;;22.20;;
37431;SDS011;23292;51.300;6.252;2024-03-08T04:05:21;48.15;;;24.30;;
37431;SDS011;23292;51.300;6.252;2024-03-08T04:07:48;51.15;;;23.63;;
37431;SDS011;23292;51.300;6.252;2024-03-08T04:10:14;46.78;;;24.00;;
37431;SDS011;23292;51.300;6.252;2024-03-08T04:12:41;44.30;;;24.25;;
37431;SDS011;23292;51.300;6.252;2024-03-08T04:15:08;44.30;;;25.20;;
37431;SDS011;23292;51.300;6.252;2024-03-08T04:17:38;49.20;;;24.80;;
37431;SDS011;23292;51.300;6.252;2024-03-08T04:20:05;51.97;;;24.58;;
37431;SDS011;23292;51.300;6.252;2024-03-08T04:22:41;49.92;;;25.35;;
37431;SDS011;23292;51.300;6.252;2024-03-08T04:25:09;48.95;;;25.50;;
37431;SDS011;23292;51.300;6.252;2024-03-08T04:27:36;47.22;;;24.88;;
37431;SDS011;23292;51.300;6.252;2024-03-08T04:30:03;49.58;;;25.08;;
37431;SDS011;23292;51.300;6.252;2024-03-08T04:32:34;52.90;;;26.13;;
37431;SDS011;23292;51.300;6.252;2024-03-08T04:35:01;45.00;;;24.90;;
37431;SDS011;23292;51.300;6.252;2024-03-08T04:37:29;51.28;;;25.27;;
37431;SDS011;23292;51.300;6.252;2024-03-08T04:39:56;49.67;;;25.00;;
37431;SDS011;23292;51.300;6.252;2024-03-08T04:42:23;48.25;;;25.83;;
37431;SDS011;23292;51.300;6.252;2024-03-08T04:44:51;49.08;;;23.95;;
37431;SDS011;23292;51.300;6.252;2024-03-08T04:47:19;51.22;;;24.73;;
37431;SDS011;23292;51.300;6.252;2024-03-08T04:49:46;49.95;;;26.52;;
37431;SDS011;23292;51.300;6.252;2024-03-08T04:52:13;50.50;;;24.83;;
37431;SDS011;23292;51.300;6.252;2024-03-08T04:54:40;52.85;;;26.30;;
37431;SDS011;23292;51.300;6.252;2024-03-08T04:57:07;48.65;;;25.30;;
37431;SDS011;23292;51.300;6.252;2024-03-08T04:59:35;47.72;;;25.08;;
37431;SDS011;23292;51.300;6.252;2024-03-08T05:02:02;50.40;;;24.90;;
37431;SDS011;23292;51.300;6.252;2024-03-08T05:04:30;50.67;;;25.02;;
37431;SDS011;23292;51.300;6.252;2024-03-08T05:06:57;52.47;;;25.75;;
37431;SDS011;23292;51.300;6.252;2024-03-08T05:09:27;45.95;;;24.67;;
37431;SDS011;23292;51.300;6.252;2024-03-08T05:11:55;46.00;;;25.48;;
37431;SDS011;23292;51.300;6.252;2024-03-08T05:14:22;51.17;;;25.95;;
37431;SDS011;23292;51.300;6.252;2024-03-08T05:16:51;49.30;;;25.10;;
37431;SDS011;23292;51.300;6.252;2024-03-08T05:19:18;47.20;;;25.35;;
37431;SDS011;23292;51.300;6.252;2024-03-08T05:21:46;50.08;;;24.67;;
37431;SDS011;23292;51.300;6.252;2024-03-08T05:24:15;48.72;;;24.80;;
37431;SDS011;23292;51.300;6.252;2024-03-08T05:26:44;48.35;;;25.17;;
37431;SDS011;23292;51.300;6.252;2024-03-08T05:29:11;50.38;;;25.25;;
37431;SDS011;23292;51.300;6.252;2024-03-08T05:31:48;52.67;;;25.83;;
37431;SDS011;23292;51.300;6.252;2024-03-08T05:34:16;46.60;;;24.20;;
37431;SDS011;23292;51.300;6.252;2024-03-08T05:36:43;48.22;;;24.85;;
37431;SDS011;23292;51.300;6.252;2024-03-08T05:39:11;57.38;;;27.52;;
37431;SDS011;23292;51.300;6.252;2024-03-08T05:41:39;52.40;;;27.15;;
37431;SDS011;23292;51.300;6.252;2024-03-08T05:44:06;52.90;;;26.95;;
37431;SDS011;23292;51.300;6.252;2024-03-08T05:46:34;56.38;;;27.20;;
37431;SDS011;23292;51.300;6.252;2024-03-08T05:49:04;54.92;;;28.13;;
37431;SDS011;23292;51.300;6.252;2024-03-08T05:51:32;58.05;;;27.13;;
37431;SDS011;23292;51.300;6.252;2024-03-08T05:54:03;49.60;;;25.52;;
37431;SDS011;23292;51.300;6.252;2024-03-08T05:56:32;52.83;;;26.48;;
37431;SDS011;23292;51.300;6.252;2024-03-08T05:58:59;50.75;;;26.55;;
37431;SDS011;23292;51.300;6.252;2024-03-08T06:01:27;55.08;;;27.77;;
37431;SDS011;23292;51.300;6.252;2024-03-08T06:03:57;56.20;;;27.80;;
37431;SDS011;23292;51.300;6.252;2024-03-08T06:06:24;48.78;;;26.23;;
37431;SDS011;23292;51.300;6.252;2024-03-08T06:08:52;55.95;;;27.75;;
37431;SDS011;23292;51.300;6.252;2024-03-08T06:11:19;54.20;;;26.95;;
37431;SDS011;23292;51.300;6.252;2024-03-08T06:13:46;52.30;;;27.38;;
37431;SDS011;23292;51.300;6.252;2024-03-08T06:16:13;57.60;;;28.17;;
37431;SDS011;23292;51.300;6.252;2024-03-08T06:18:40;56.75;;;28.70;;
37431;SDS011;23292;51.300;6.252;2024-03-08T06:21:08;60.13;;;28.15;;
37431;SDS011;23292;51.300;6.252;2024-03-08T06:23:38;57.55;;;28.73;;
37431;SDS011;23292;51.300;6.252;2024-03-08T06:26:06;55.20;;;29.33;;
37431;SDS011;23292;51.300;6.252;2024-03-08T06:28:33;57.25;;;28.33;;
37431;SDS011;23292;51.300;6.252;2024-03-08T06:31:03;58.28;;;28.00;;
37431;SDS011;23292;51.300;6.252;2024-03-08T06:33:30;59.30;;;28.92;;
37431;SDS011;23292;51.300;6.252;2024-03-08T06:35:59;59.90;;;29.55;;
37431;SDS011;23292;51.300;6.252;2024-03-08T06:38:26;57.58;;;28.63;;
37431;SDS011;23292;51.300;6.252;2024-03-08T06:40:53;64.55;;;29.98;;
37431;SDS011;23292;51.300;6.252;2024-03-08T06:43:20;65.35;;;30.90;;
37431;SDS011;23292;51.300;6.252;2024-03-08T06:45:47;56.03;;;28.48;;
37431;SDS011;23292;51.300;6.252;2024-03-08T06:48:15;59.45;;;28.65;;
37431;SDS011;23292;51.300;6.252;2024-03-08T06:50:46;55.67;;;27.85;;
37431;SDS011;23292;51.300;6.252;2024-03-08T06:53:14;57.35;;;27.15;;
37431;SDS011;23292;51.300;6.252;2024-03-08T06:55:43;54.05;;;26.90;;
37431;SDS011;23292;51.300;6.252;2024-03-08T06:58:10;64.68;;;29.02;;
37431;SDS011;23292;51.300;6.252;2024-03-08T07:00:37;52.83;;;27.00;;
37431;SDS011;23292;51.300;6.252;2024-03-08T07:03:08;50.03;;;27.35;;
37431;SDS011;23292;51.300;6.252;2024-03-08T07:05:38;42.60;;;25.60;;
37431;SDS011;23292;51.300;6.252;2024-03-08T07:08:06;47.17;;;25.80;;
37431;SDS011;23292;51.300;6.252;2024-03-08T07:10:33;50.50;;;25.52;;
37431;SDS011;23292;51.300;6.252;2024-03-08T07:13:01;48.55;;;26.08;;
37431;SDS011;23292;51.300;6.252;2024-03-08T07:15:28;45.03;;;26.02;;
37431;SDS011;23292;51.300;6.252;2024-03-08T07:17:55;45.35;;;25.40;;
37431;SDS011;23292;51.300;6.252;2024-03-08T07:20:22;41.90;;;24.45;;
37431;SDS011;23292;51.300;6.252;2024-03-08T07:22:48;46.60;;;24.63;;
37431;SDS011;23292;51.300;6.252;2024-03-08T07:25:19;47.17;;;25.23;;
37431;SDS011;23292;51.300;6.252;2024-03-08T07:27:50;44.17;;;24.27;;
37431;SDS011;23292;51.300;6.252;2024-03-08T07:30:24;47.15;;;24.70;;
37431;SDS011;23292;51.300;6.252;2024-03-08T07:33:11;46.22;;;23.75;;
37431;SDS011;23292;51.300;6.252;2024-03-08T07:35:39;45.33;;;25.00;;
37431;SDS011;23292;51.300;6.252;2024-03-08T07:38:07;42.80;;;25.08;;
37431;SDS011;23292;51.300;6.252;2024-03-08T07:40:39;47.90;;;25.23;;
37431;SDS011;23292;51.300;6.252;2024-03-08T07:43:12;52.45;;;25.67;;
37431;SDS011;23292;51.300;6.252;2024-03-08T07:45:39;45.35;;;24.65;;
37431;SDS011;23292;51.300;6.252;2024-03-08T07:48:06;53.45;;;25.70;;
37431;SDS011;23292;51.300;6.252;2024-03-08T07:50:37;46.43;;;24.17;;
37431;SDS011;23292;51.300;6.252;2024-03-08T07:53:07;43.35;;;23.25;;
37431;SDS011;23292;51.300;6.252;2024-03-08T07:55:35;47.30;;;25.27;;
37431;SDS011;23292;51.300;6.252;2024-03-08T07:58:02;47.60;;;24.95;;
37431;SDS011;23292;51.300;6.252;2024-03-08T08:00:30;48.88;;;24.67;;
37431;SDS011;23292;51.300;6.252;2024-03-08T08:03:00;49.63;;;24.90;;
37431;SDS011;23292;51.300;6.252;2024-03-08T08:05:27;49.40;;;24.33;;
37431;SDS011;23292;51.300;6.252;2024-03-08T08:07:54;46.88;;;25.58;;
37431;SDS011;23292;51.300;6.252;2024-03-08T08:10:21;46.45;;;24.08;;
37431;SDS011;23292;51.300;6.252;2024-03-08T08:12:48;47.75;;;25.33;;
37431;SDS011;23292;51.300;6.252;2024-03-08T08:15:15;52.92;;;24.15;;
37431;SDS011;23292;51.300;6.252;2024-03-08T08:17:42;42.90;;;24.15;;
37431;SDS011;23292;51.300;6.252;2024-03-08T08:20:12;47.25;;;24.92;;
37431;SDS011;23292;51.300;6.252;2024-03-08T08:22:39;49.67;;;25.30;;
37431;SDS011;23292;51.300;6.252;2024-03-08T08:25:07;49.67;;;25.52;;
37431;SDS011;23292;51.300;6.252;2024-03-08T08:27:34;43.70;;;23.15;;
37431;SDS011;23292;51.300;6.252;2024-03-08T08:30:03;47.08;;;24.35;;
37431;SDS011;23292;51.300;6.252;2024-03-08T08:32:35;42.55;;;22.63;;
37431;SDS011;23292;51.300;6.252;2024-03-08T08:35:03;43.25;;;21.63;;
37431;SDS011;23292;51.300;6.252;2024-03-08T08:37:31;42.70;;;21.83;;
37431;SDS011;23292;51.300;6.252;2024-03-08T08:39:58;41.92;;;21.90;;
37431;SDS011;23292;51.300;6.252;2024-03-08T08:42:31;37.17;;;21.45;;
37431;SDS011;23292;51.300;6.252;2024-03-08T08:44:58;37.40;;;21.55;;
37431;SDS011;23292;51.300;6.252;2024-03-08T08:47:34;37.42;;;20.77;;
37431;SDS011;23292;51.300;6.252;2024-03-08T08:50:02;41.30;;;21.65;;
37431;SDS011;23292;51.300;6.252;2024-03-08T08:52:31;40.63;;;21.40;;
37431;SDS011;23292;51.300;6.252;2024-03-08T08:54:58;43.80;;;22.15;;
37431;SDS011;23292;51.300;6.252;2024-03-08T08:57:25;38.55;;;21.67;;
37431;SDS011;23292;51.300;6.252;2024-03-08T08:59:53;44.10;;;22.10;;
37431;SDS011;23292;51.300;6.252;2024-03-08T09:02:20;34.40;;;20.10;;
37431;SDS011;23292;51.300;6.252;2024-03-08T09:04:47;38.90;;;21.63;;
37431;SDS011;23292;51.300;6.252;2024-03-08T09:07:14;35.90;;;20.00;;
37431;SDS011;23292;51.300;6.252;2024-03-08T09:09:42;35.85;;;20.13;;
37431;SDS011;23292;51.300;6.252;2024-03-08T09:12:09;34.83;;;18.52;;
37431;SDS011;23292;51.300;6.252;2024-03-08T09:14:40;30.52;;;18.35;;
37431;SDS011;23292;51.300;6.252;2024-03-08T09:17:25;36.80;;;19.70;;
37431;SDS011;23292;51.300;6.252;2024-03-08T09:19:53;32.85;;;18.67;;
37431;SDS011;23292;51.300;6.252;2024-03-08T09:22:20;32.05;;;17.48;;
37431;SDS011;23292;51.300;6.252;2024-03-08T09:24:47;32.58;;;18.13;;
37431;SDS011;23292;51.300;6.252;2024-03-08T09:27:14;33.33;;;18.88;;
37431;SDS011;23292;51.300;6.252;2024-03-08T09:29:41;33.20;;;17.48;;
37431;SDS011;23292;51.300;6.252;2024-03-08T09:32:08;30.27;;;17.42;;
37431;SDS011;23292;51.300;6.252;2024-03-08T09:34:34;31.05;;;18.33;;
37431;SDS011;23292;51.300;6.252;2024-03-08T09:37:04;32.15;;;18.52;;
37431;SDS011;23292;51.300;6.252;2024-03-08T09:39:31;33.70;;;18.10;;
37431;SDS011;23292;51.300;6.252;2024-03-08T09:42:00;30.35;;;17.48;;
37431;SDS011;23292;51.300;6.252;2024-03-08T09:44:30;31.67;;;16.08;;
37431;SDS011;23292;51.300;6.252;2024-03-08T09:46:57;25.02;;;15.32;;
37431;SDS011;23292;51.300;6.252;2024-03-08T09:49:25;28.17;;;15.75;;
37431;SDS011;23292;51.300;6.252;2024-03-08T09:51:52;27.13;;;16.15;;
37431;SDS011;23292;51.300;6.252;2024-03-08T09:54:20;28.50;;;16.80;;
37431;SDS011;23292;51.300;6.252;2024-03-08T09:59:19;25.25;;;15.05;;
37431;SDS011;23292;51.300;6.252;2024-03-08T10:01:58;27.15;;;16.10;;
37431;SDS011;23292;51.300;6.252;2024-03-08T10:04:26;27.20;;;15.93;;
37431;SDS011;23292;51.300;6.252;2024-03-08T10:06:55;28.67;;;15.90;;
37431;SDS011;23292;51.300;6.252;2024-03-08T10:09:23;26.63;;;16.05;;
37431;SDS011;23292;51.300;6.252;2024-03-08T10:11:58;28.35;;;16.10;;
37431;SDS011;23292;51.300;6.252;2024-03-08T10:14:26;26.95;;;15.35;;
37431;SDS011;23292;51.300;6.252;2024-03-08T10:16:53;26.67;;;15.80;;
37431;SDS011;23292;51.300;6.252;2024-03-08T10:19:20;29.23;;;15.18;;
37431;SDS011;23292;51.300;6.252;2024-03-08T10:21:51;30.27;;;16.15;;
37431;SDS011;23292;51.300;6.252;2024-03-08T10:24:23;22.50;;;13.93;;
37431;SDS011;23292;51.300;6.252;2024-03-08T10:26:53;24.05;;;13.88;;
37431;SDS011;23292;51.300;6.252;2024-03-08T10:29:25;24.73;;;14.70;;
37431;SDS011;23292;51.300;6.252;2024-03-08T10:31:52;23.80;;;13.82;;
37431;SDS011;23292;51.300;6.252;2024-03-08T10:34:19;25.45;;;14.15;;
37431;SDS011;23292;51.300;6.252;2024-03-08T10:36:46;24.75;;;14.57;;
37431;SDS011;23292;51.300;6.252;2024-03-08T10:39:22;26.05;;;14.50;;
37431;SDS011;23292;51.300;6.252;2024-03-08T10:41:56;25.13;;;14.02;;
37431;SDS011;23292;51.300;6.252;2024-03-08T10:47:02;23.20;;;13.63;;
37431;SDS011;23292;51.300;6.252;2024-03-08T10:49:39;27.45;;;14.73;;
37431;SDS011;23292;51.300;6.252;2024-03-08T10:52:14;25.67;;;15.25;;
37431;SDS011;23292;51.300;6.252;2024-03-08T10:54:43;24.13;;;14.38;;
37431;SDS011;23292;51.300;6.252;2024-03-08T10:57:13;23.13;;;13.48;;
37431;SDS011;23292;51.300;6.252;2024-03-08T10:59:43;23.90;;;13.68;;
37431;SDS011;23292;51.300;6.252;2024-03-08T11:02:11;25.85;;;14.13;;
37431;SDS011;23292;51.300;6.252;2024-03-08T11:04:39;26.77;;;14.38;;
37431;SDS011;23292;51.300;6.252;2024-03-08T11:07:12;24.42;;;13.45;;
37431;SDS011;23292;51.300;6.252;2024-03-08T11:09:44;23.00;;;13.70;;
37431;SDS011;23292;51.300;6.252;2024-03-08T11:12:18;23.95;;;13.38;;
37431;SDS011;23292;51.300;6.252;2024-03-08T11:14:49;22.48;;;13.27;;
37431;SDS011;23292;51.300;6.252;2024-03-08T11:17:21;24.10;;;14.13;;
37431;SDS011;23292;51.300;6.252;2024-03-08T11:19:57;20.77;;;11.77;;
37431;SDS011;23292;51.300;6.252;2024-03-08T11:22:32;21.73;;;13.00;;
37431;SDS011;23292;51.300;6.252;2024-03-08T11:25:03;22.40;;;12.52;;
37431;SDS011;23292;51.300;6.252;2024-03-08T11:27:38;23.52;;;12.68;;
37431;SDS011;23292;51.300;6.252;2024-03-08T11:30:06;22.42;;;12.25;;
37431;SDS011;23292;51.300;6.252;2024-03-08T11:32:46;23.80;;;12.88;;
37431;SDS011;23292;51.300;6.252;2024-03-08T11:35:20;21.17;;;11.55;;
37431;SDS011;23292;51.300;6.252;2024-03-08T11:37:50;22.13;;;12.60;;
37431;SDS011;23292;51.300;6.252;2024-03-08T11:40:17;20.90;;;13.20;;
37431;SDS011;23292;51.300;6.252;2024-03-08T11:42:47;25.02;;;13.27;;
37431;SDS011;23292;51.300;6.252;2024-03-08T11:45:15;20.50;;;12.68;;
37431;SDS011;23292;51.300;6.252;2024-03-08T11:47:44;19.20;;;12.65;;
37431;SDS011;23292;51.300;6.252;2024-03-08T11:50:16;19.00;;;12.02;;
37431;SDS011;23292;51.300;6.252;2024-03-08T11:52:45;20.63;;;12.73;;
37431;SDS011;23292;51.300;6.252;2024-03-08T11:55:12;18.60;;;11.32;;
37431;SDS011;23292;51.300;6.252;2024-03-08T11:57:39;18.88;;;11.52;;
37431;SDS011;23292;51.300;6.252;2024-03-08T12:00:14;22.00;;;12.57;;
37431;SDS011;23292;51.300;6.252;2024-03-08T12:03:06;19.92;;;11.77;;
37431;SDS011;23292;51.300;6.252;2024-03-08T12:05:34;22.83;;;11.45;;
37431;SDS011;23292;51.300;6.252;2024-03-08T12:08:04;23.15;;;12.73;;
37431;SDS011;23292;51.300;6.252;2024-03-08T12:10:33;22.00;;;12.55;;
37431;SDS011;23292;51.300;6.252;2024-03-08T12:13:01;19.95;;;12.25;;
37431;SDS011;23292;51.300;6.252;2024-03-08T12:15:37;23.05;;;12.20;;
37431;SDS011;23292;51.300;6.252;2024-03-08T12:18:05;22.52;;;12.57;;
37431;SDS011;23292;51.300;6.252;2024-03-08T12:20:33;23.50;;;12.70;;
37431;SDS011;23292;51.300;6.252;2024-03-08T12:23:00;18.75;;;11.05;;
37431;SDS011;23292;51.300;6.252;2024-03-08T12:25:31;20.70;;;11.98;;
37431;SDS011;23292;51.300;6.252;2024-03-08T12:28:08;18.98;;;11.40;;
37431;SDS011;23292;51.300;6.252;2024-03-08T12:30:47;20.58;;;11.60;;
37431;SDS011;23292;51.300;6.252;2024-03-08T12:33:20;20.77;;;11.85;;
37431;SDS011;23292;51.300;6.252;2024-03-08T12:35:52;23.20;;;13.43;;
37431;SDS011;23292;51.300;6.252;2024-03-08T12:38:21;19.52;;;11.75;;
37431;SDS011;23292;51.300;6.252;2024-03-08T12:40:59;19.92;;;11.57;;
37431;SDS011;23292;51.300;6.252;2024-03-08T12:43:27;20.17;;;11.82;;
37431;SDS011;23292;51.300;6.252;2024-03-08T12:45:58;22.23;;;12.48;;
37431;SDS011;23292;51.300;6.252;2024-03-08T12:48:25;22.65;;;12.70;;
37431;SDS011;23292;51.300;6.252;2024-03-08T12:50:51;19.33;;;12.02;;
37431;SDS011;23292;51.300;6.252;2024-03-08T12:53:20;22.95;;;12.60;;
37431;SDS011;23292;51.300;6.252;2024-03-08T12:55:49;22.15;;;12.60;;
37431;SDS011;23292;51.300;6.252;2024-03-08T12:58:16;21.65;;;12.48;;
37431;SDS011;23292;51.300;6.252;2024-03-08T13:00:43;20.38;;;12.27;;
37431;SDS011;23292;51.300;6.252;2024-03-08T13:03:10;18.63;;;11.95;;
37431;SDS011;23292;51.300;6.252;2024-03-08T13:05:38;19.38;;;11.57;;
37431;SDS011;23292;51.300;6.252;2024-03-08T13:08:09;15.95;;;10.30;;
37431;SDS011;23292;51.300;6.252;2024-03-08T13:10:41;18.10;;;12.00;;
37431;SDS011;23292;51.300;6.252;2024-03-08T13:13:11;18.23;;;11.15;;
37431;SDS011;23292;51.300;6.252;2024-03-08T13:15:44;20.98;;;11.82;;
37431;SDS011;23292;51.300;6.252;2024-03-08T13:18:11;18.17;;;11.48;;
37431;SDS011;23292;51.300;6.252;2024-03-08T13:20:39;21.23;;;11.73;;
37431;SDS011;23292;51.300;6.252;2024-03-08T13:23:13;18.40;;;11.77;;
37431;SDS011;23292;51.300;6.252;2024-03-08T13:25:40;18.50;;;11.27;;
37431;SDS011;23292;51.300;6.252;2024-03-08T13:28:08;22.10;;;11.90;;
37431;SDS011;23292;51.300;6.252;2024-03-08T13:30:35;20.02;;;11.13;;
37431;SDS011;23292;51.300;6.252;2024-03-08T13:33:02;19.60;;;11.80;;
37431;SDS011;23292;51.300;6.252;2024-03-08T13:35:33;21.40;;;11.80;;
37431;SDS011;23292;51.300;6.252;2024-03-08T13:38:01;21.58;;;11.43;;
37431;SDS011;23292;51.300;6.252;2024-03-08T13:40:31;17.92;;;10.77;;
37431;SDS011;23292;51.300;6.252;2024-03-08T13:42:58;17.50;;;10.02;;
37431;SDS011;23292;51.300;6.252;2024-03-08T13:45:27;18.45;;;11.70;;
37431;SDS011;23292;51.300;6.252;2024-03-08T13:47:54;18.48;;;11.88;;
37431;SDS011;23292;51.300;6.252;2024-03-08T13:50:21;19.63;;;11.45;;
37431;SDS011;23292;51.300;6.252;2024-03-08T13:52:49;20.33;;;10.70;;
37431;SDS011;23292;51.300;6.252;2024-03-08T13:55:22;18.50;;;11.88;;
37431;SDS011;23292;51.300;6.252;2024-03-08T13:57:50;18.17;;;11.18;;
37431;SDS011;23292;51.300;6.252;2024-03-08T14:00:20;19.98;;;12.23;;
37431;SDS011;23292;51.300;6.252;2024-03-08T14:02:49;17.42;;;10.43;;
37431;SDS011;23292;51.300;6.252;2024-03-08T14:05:16;19.80;;;10.90;;
37431;SDS011;23292;51.300;6.252;2024-03-08T14:07:46;18.13;;;10.77;;
37431;SDS011;23292;51.300;6.252;2024-03-08T14:10:15;18.63;;;11.00;;
37431;SDS011;23292;51.300;6.252;2024-03-08T14:12:43;19.30;;;10.95;;
37431;SDS011;23292;51.300;6.252;2024-03-08T14:15:10;21.80;;;11.00;;
37431;SDS011;23292;51.300;6.252;2024-03-08T14:17:39;18.50;;;10.00;;
37431;SDS011;23292;51.300;6.252;2024-03-08T14:20:06;18.92;;;11.25;;
37431;SDS011;23292;51.300;6.252;2024-03-08T14:22:34;18.60;;;10.13;;
37431;SDS011;23292;51.300;6.252;2024-03-08T14:25:01;18.63;;;10.70;;
37431;SDS011;23292;51.300;6.252;2024-03-08T14:27:31;16.15;;;10.30;;
37431;SDS011;23292;51.300;6.252;2024-03-08T14:29:59;22.58;;;10.98;;
37431;SDS011;23292;51.300;6.252;2024-03-08T14:32:26;17.08;;;10.15;;
37431;SDS011;23292;51.300;6.252;2024-03-08T14:34:54;19.52;;;10.70;;